sensor_id;sensor_type;location;lat;lon;timestamp;pressure;altitude;pressure_sealevel;temperature;humidity
57990;BME280;58373;51.824;5.564;2022-10-20T00:00:41;101703.88;;;8.16;93.23
57990;BME280;58373;51.824;5.564;2022-10-20T00:03:06;101710.50;;;8.20;93.13
57990;BME280;58373;51.824;5.564;2022-10-20T00:05:32;101702.22;;;8.15;93.88
57990;BME280;58373;51.824;5.564;2022-10-20T00:07:57;101712.00;;;8.24;93.69
57990;BME280;58373;51.824;5.564;2022-10-20T00:10:22;101705.03;;;8.26;93.76
57990;BME280;58373;51.824;5.564;2022-10-20T00:12:48;101698.16;;;8.25;94.10
57990;BME280;58373;51.824;5.564;2022-10-20T00:15:13;101702.97;;;8.31;93.91
57990;BME280;58373;51.824;5.564;2022-10-20T00:17:38;101701.31;;;8.30;94.09
57990;BME280;58373;51.824;5.564;2022-10-20T00:20:04;101696.16;;;8.30;93.97
57990;BME280;58373;51.824;5.564;2022-10-20T00:22:30;101694.38;;;8.31;93.96
57990;BME280;58373;51.824;5.564;2022-10-20T00:24:56;101687.16;;;8.37;94.19
57990;BME280;58373;51.824;5.564;2022-10-20T00:27:21;101671.66;;;8.37;94.10
57990;BME280;58373;51.824;5.564;2022-10-20T00:29:47;101680.88;;;8.41;94.32
57990;BME280;58373;51.824;5.564;2022-10-20T00:32:13;101672.03;;;8.45;94.31
57990;BME280;58373;51.824;5.564;2022-10-20T00:34:38;101665.94;;;8.46;94.14
57990;BME280;58373;51.824;5.564;2022-10-20T00:37:03;101669.06;;;8.51;94.06
57990;BME280;58373;51.824;5.564;2022-10-20T00:39:29;101646.06;;;8.47;93.99
57990;BME280;58373;51.824;5.564;2022-10-20T00:41:55;101641.94;;;8.44;94.40
57990;BME280;58373;51.824;5.564;2022-10-20T00:44:47;101655.06;;;8.56;94.07
57990;BME280;58373;51.824;5.564;2022-10-20T00:49:50;101658.56;;;8.55;94.05
57990;BME280;58373;51.824;5.564;2022-10-20T00:52:17;101662.72;;;8.57;94.36
57990;BME280;58373;51.824;5.564;2022-10-20T00:54:44;101669.63;;;8.57;94.16
57990;BME280;58373;51.824;5.564;2022-10-20T00:57:10;101655.41;;;8.49;94.56
57990;BME280;58373;51.824;5.564;2022-10-20T00:59:36;101665.41;;;8.56;94.03
57990;BME280;58373;51.824;5.564;2022-10-20T01:02:04;101656.25;;;8.50;94.51
57990;BME280;58373;51.824;5.564;2022-10-20T01:04:30;101646.53;;;8.54;94.33
57990;BME280;58373;51.824;5.564;2022-10-20T01:06:57;101637.13;;;8.52;94.65
57990;BME280;58373;51.824;5.564;2022-10-20T01:09:40;101631.59;;;8.44;94.65
57990;BME280;58373;51.824;5.564;2022-10-20T01:18:06;101629.38;;;8.52;94.51
57990;BME280;58373;51.824;5.564;2022-10-20T01:24:41;101620.88;;;8.50;94.82
57990;BME280;58373;51.824;5.564;2022-10-20T01:27:24;101615.88;;;8.47;95.05
57990;BME280;58373;51.824;5.564;2022-10-20T01:30:10;101595.19;;;8.47;94.71
57990;BME280;58373;51.824;5.564;2022-10-20T01:41:00;101594.13;;;8.37;94.91
57990;BME280;58373;51.824;5.564;2022-10-20T01:43:32;101589.09;;;8.34;94.81
57990;BME280;58373;51.824;5.564;2022-10-20T01:45:59;101591.31;;;8.26;94.96
57990;BME280;58373;51.824;5.564;2022-10-20T01:48:28;101568.94;;;8.25;95.15
57990;BME280;58373;51.824;5.564;2022-10-20T01:50:55;101558.97;;;8.19;94.65
57990;BME280;58373;51.824;5.564;2022-10-20T01:53:21;101570.81;;;8.23;94.92
57990;BME280;58373;51.824;5.564;2022-10-20T01:55:52;101554.84;;;8.16;95.16
57990;BME280;58373;51.824;5.564;2022-10-20T01:58:39;101528.72;;;8.07;95.59
57990;BME280;58373;51.824;5.564;2022-10-20T02:04:08;101551.69;;;8.11;95.35
57990;BME280;58373;51.824;5.564;2022-10-20T02:09:19;101542.38;;;8.09;95.20
57990;BME280;58373;51.824;5.564;2022-10-20T02:12:09;101518.94;;;7.97;95.71
57990;BME280;58373;51.824;5.564;2022-10-20T02:14:38;101534.25;;;8.01;95.06
57990;BME280;58373;51.824;5.564;2022-10-20T02:17:10;101522.25;;;7.99;95.76
57990;BME280;58373;51.824;5.564;2022-10-20T02:19:41;101526.41;;;7.88;95.25
57990;BME280;58373;51.824;5.564;2022-10-20T02:22:08;101536.47;;;7.92;95.73
57990;BME280;58373;51.824;5.564;2022-10-20T02:24:35;101555.09;;;7.97;96.23
57990;BME280;58373;51.824;5.564;2022-10-20T02:27:06;101550.09;;;7.94;96.13
57990;BME280;58373;51.824;5.564;2022-10-20T02:29:38;101544.22;;;7.92;96.14
57990;BME280;58373;51.824;5.564;2022-10-20T02:32:07;101534.81;;;7.91;96.86
57990;BME280;58373;51.824;5.564;2022-10-20T02:34:34;101537.28;;;7.93;96.60
57990;BME280;58373;51.824;5.564;2022-10-20T02:36:59;101533.13;;;7.90;96.59
57990;BME280;58373;51.824;5.564;2022-10-20T02:39:25;101525.19;;;7.93;96.99
57990;BME280;58373;51.824;5.564;2022-10-20T02:41:50;101507.50;;;7.87;96.67
57990;BME280;58373;51.824;5.564;2022-10-20T02:44:16;101521.13;;;7.89;96.43
57990;BME280;58373;51.824;5.564;2022-10-20T02:46:42;101522.97;;;7.87;96.73
57990;BME280;58373;51.824;5.564;2022-10-20T02:49:07;101515.88;;;7.91;96.35
57990;BME280;58373;51.824;5.564;2022-10-20T02:51:32;101503.97;;;7.88;96.70
57990;BME280;58373;51.824;5.564;2022-10-20T02:53:58;101502.50;;;7.84;96.65
57990;BME280;58373;51.824;5.564;2022-10-20T02:56:23;101498.97;;;7.85;96.91
57990;BME280;58373;51.824;5.564;2022-10-20T02:58:49;101475.94;;;7.82;97.05
57990;BME280;58373;51.824;5.564;2022-10-20T03:01:14;101473.72;;;7.76;96.72
57990;BME280;58373;51.824;5.564;2022-10-20T03:03:39;101478.53;;;7.82;96.81
57990;BME280;58373;51.824;5.564;2022-10-20T03:06:14;101458.59;;;7.70;96.75
57990;BME280;58373;51.824;5.564;2022-10-20T03:08:40;101471.03;;;7.78;96.45
57990;BME280;58373;51.824;5.564;2022-10-20T03:11:06;101453.22;;;7.73;96.17
57990;BME280;58373;51.824;5.564;2022-10-20T03:13:31;101439.97;;;7.65;96.92
57990;BME280;58373;51.824;5.564;2022-10-20T03:15:56;101445.78;;;7.68;96.96
57990;BME280;58373;51.824;5.564;2022-10-20T03:18:22;101437.13;;;7.69;96.77
57990;BME280;58373;51.824;5.564;2022-10-20T03:20:51;101432.94;;;7.67;96.98
57990;BME280;58373;51.824;5.564;2022-10-20T03:23:17;101398.09;;;7.45;96.94
57990;BME280;58373;51.824;5.564;2022-10-20T03:25:42;101415.25;;;7.61;97.13
57990;BME280;58373;51.824;5.564;2022-10-20T03:28:07;101421.16;;;7.63;96.96
57990;BME280;58373;51.824;5.564;2022-10-20T03:30:33;101419.47;;;7.62;97.12
57990;BME280;58373;51.824;5.564;2022-10-20T03:32:58;101425.00;;;7.56;96.97
57990;BME280;58373;51.824;5.564;2022-10-20T03:35:23;101424.84;;;7.59;97.64
57990;BME280;58373;51.824;5.564;2022-10-20T03:37:49;101417.81;;;7.61;97.32
57990;BME280;58373;51.824;5.564;2022-10-20T03:40:14;101397.63;;;7.53;97.80
57990;BME280;58373;51.824;5.564;2022-10-20T03:42:39;101390.91;;;7.51;97.73
57990;BME280;58373;51.824;5.564;2022-10-20T03:45:05;101394.22;;;7.53;97.47
57990;BME280;58373;51.824;5.564;2022-10-20T03:47:31;101395.53;;;7.60;97.95
57990;BME280;58373;51.824;5.564;2022-10-20T03:49:56;101375.41;;;7.51;98.24
57990;BME280;58373;51.824;5.564;2022-10-20T03:52:21;101370.44;;;7.48;98.27
57990;BME280;58373;51.824;5.564;2022-10-20T03:54:47;101383.72;;;7.56;98.29
57990;BME280;58373;51.824;5.564;2022-10-20T03:57:13;101370.81;;;7.56;98.42
57990;BME280;58373;51.824;5.564;2022-10-20T03:59:38;101372.38;;;7.58;98.11
57990;BME280;58373;51.824;5.564;2022-10-20T04:02:03;101384.16;;;7.62;98.49
57990;BME280;58373;51.824;5.564;2022-10-20T04:04:29;101380.84;;;7.60;99.01
57990;BME280;58373;51.824;5.564;2022-10-20T04:06:54;101396.81;;;7.67;99.14
57990;BME280;58373;51.824;5.564;2022-10-20T04:09:19;101371.81;;;7.67;99.42
57990;BME280;58373;51.824;5.564;2022-10-20T04:11:45;101379.28;;;7.72;99.78
57990;BME280;58373;51.824;5.564;2022-10-20T04:14:10;101358.47;;;7.75;100.00
57990;BME280;58373;51.824;5.564;2022-10-20T04:16:35;101351.88;;;7.84;100.00
57990;BME280;58373;51.824;5.564;2022-10-20T04:19:01;101362.81;;;8.02;100.00
57990;BME280;58373;51.824;5.564;2022-10-20T04:21:26;101360.50;;;8.11;100.00
57990;BME280;58373;51.824;5.564;2022-10-20T04:23:51;101338.66;;;8.03;100.00
57990;BME280;58373;51.824;5.564;2022-10-20T04:26:17;101340.28;;;8.18;100.00
57990;BME280;58373;51.824;5.564;2022-10-20T04:28:42;101347.75;;;8.22;100.00
57990;BME280;58373;51.824;5.564;2022-10-20T04:31:08;101358.13;;;8.35;100.00
57990;BME280;58373;51.824;5.564;2022-10-20T04:33:33;101339.13;;;8.36;100.00
57990;BME280;58373;51.824;5.564;2022-10-20T04:36:09;101348.88;;;8.45;100.00
57990;BME280;58373;51.824;5.564;2022-10-20T04:38:35;101335.25;;;8.43;100.00
57990;BME280;58373;51.824;5.564;2022-10-20T04:41:02;101324.69;;;8.46;100.00
57990;BME280;58373;51.824;5.564;2022-10-20T04:43:29;101312.41;;;8.50;100.00
57990;BME280;58373;51.824;5.564;2022-10-20T04:46:01;101309.19;;;8.59;100.00
57990;BME280;58373;51.824;5.564;2022-10-20T04:48:27;101291.22;;;8.58;99.90
57990;BME280;58373;51.824;5.564;2022-10-20T04:51:18;101309.44;;;8.69;99.82
57990;BME280;58373;51.824;5.564;2022-10-20T04:53:44;101295.25;;;8.62;100.00
57990;BME280;58373;51.824;5.564;2022-10-20T04:56:12;101306.97;;;8.67;99.40
57990;BME280;58373;51.824;5.564;2022-10-20T04:58:46;101308.41;;;8.71;99.50
57990;BME280;58373;51.824;5.564;2022-10-20T05:01:11;101305.81;;;8.71;99.52
57990;BME280;58373;51.824;5.564;2022-10-20T05:03:37;101294.34;;;8.75;99.58
57990;BME280;58373;51.824;5.564;2022-10-20T05:08:34;101285.97;;;8.72;99.22
57990;BME280;58373;51.824;5.564;2022-10-20T05:11:00;101294.56;;;8.72;99.46
57990;BME280;58373;51.824;5.564;2022-10-20T05:13:25;101296.63;;;8.80;98.83
57990;BME280;58373;51.824;5.564;2022-10-20T05:15:51;101274.06;;;8.69;99.23
57990;BME280;58373;51.824;5.564;2022-10-20T05:18:17;101277.28;;;8.73;99.45
57990;BME280;58373;51.824;5.564;2022-10-20T05:20:42;101294.97;;;8.79;98.85
57990;BME280;58373;51.824;5.564;2022-10-20T05:23:07;101281.28;;;8.77;99.19
57990;BME280;58373;51.824;5.564;2022-10-20T05:25:35;101277.59;;;8.81;98.80
57990;BME280;58373;51.824;5.564;2022-10-20T05:28:01;101255.66;;;8.74;98.80
57990;BME280;58373;51.824;5.564;2022-10-20T05:30:26;101244.69;;;8.70;99.30
57990;BME280;58373;51.824;5.564;2022-10-20T05:32:51;101242.00;;;8.72;98.71
57990;BME280;58373;51.824;5.564;2022-10-20T05:35:17;101250.59;;;8.72;98.97
57990;BME280;58373;51.824;5.564;2022-10-20T05:37:42;101272.41;;;8.81;98.46
57990;BME280;58373;51.824;5.564;2022-10-20T05:40:08;101260.31;;;8.69;99.19
57990;BME280;58373;51.824;5.564;2022-10-20T05:42:34;101277.16;;;8.74;98.99
57990;BME280;58373;51.824;5.564;2022-10-20T05:44:59;101281.09;;;8.80;98.97
57990;BME280;58373;51.824;5.564;2022-10-20T05:47:25;101254.00;;;8.73;98.75
57990;BME280;58373;51.824;5.564;2022-10-20T05:49:50;101237.03;;;8.82;99.05
57990;BME280;58373;51.824;5.564;2022-10-20T05:52:15;101212.00;;;8.69;98.92
57990;BME280;58373;51.824;5.564;2022-10-20T05:54:41;101228.56;;;8.67;98.72
57990;BME280;58373;51.824;5.564;2022-10-20T05:57:06;101241.78;;;8.75;98.60
57990;BME280;58373;51.824;5.564;2022-10-20T05:59:31;101246.13;;;8.74;98.65
57990;BME280;58373;51.824;5.564;2022-10-20T06:01:57;101263.94;;;8.79;98.71
57990;BME280;58373;51.824;5.564;2022-10-20T06:04:22;101265.41;;;8.83;98.84
57990;BME280;58373;51.824;5.564;2022-10-20T06:06:49;101259.28;;;8.84;98.85
57990;BME280;58373;51.824;5.564;2022-10-20T06:09:15;101263.81;;;8.81;98.76
57990;BME280;58373;51.824;5.564;2022-10-20T06:11:40;101244.38;;;8.75;98.93
57990;BME280;58373;51.824;5.564;2022-10-20T06:14:07;101263.94;;;8.79;98.70
57990;BME280;58373;51.824;5.564;2022-10-20T06:16:33;101278.34;;;8.83;98.97
57990;BME280;58373;51.824;5.564;2022-10-20T06:18:59;101237.44;;;8.63;99.05
57990;BME280;58373;51.824;5.564;2022-10-20T06:21:27;101272.22;;;8.84;99.06
57990;BME280;58373;51.824;5.564;2022-10-20T06:23:53;101265.19;;;8.73;98.90
57990;BME280;58373;51.824;5.564;2022-10-20T06:26:23;101278.22;;;8.85;99.13
57990;BME280;58373;51.824;5.564;2022-10-20T06:28:53;101258.97;;;8.76;99.21
57990;BME280;58373;51.824;5.564;2022-10-20T06:31:21;101279.03;;;8.85;99.09
57990;BME280;58373;51.824;5.564;2022-10-20T06:33:47;101256.19;;;8.79;99.14
57990;BME280;58373;51.824;5.564;2022-10-20T06:36:14;101254.84;;;8.86;99.38
57990;BME280;58373;51.824;5.564;2022-10-20T06:38:40;101248.19;;;8.82;99.55
57990;BME280;58373;51.824;5.564;2022-10-20T06:41:08;101228.84;;;8.75;99.20
57990;BME280;58373;51.824;5.564;2022-10-20T06:43:34;101237.84;;;8.82;99.05
57990;BME280;58373;51.824;5.564;2022-10-20T06:46:05;101239.53;;;8.83;99.32
57990;BME280;58373;51.824;5.564;2022-10-20T06:48:32;101256.47;;;8.87;99.22
57990;BME280;58373;51.824;5.564;2022-10-20T06:50:59;101250.25;;;8.77;99.30
57990;BME280;58373;51.824;5.564;2022-10-20T06:53:26;101261.88;;;8.84;99.54
57990;BME280;58373;51.824;5.564;2022-10-20T06:56:13;101268.28;;;8.91;99.62
57990;BME280;58373;51.824;5.564;2022-10-20T06:58:40;101264.25;;;8.87;99.83
57990;BME280;58373;51.824;5.564;2022-10-20T07:01:10;101252.97;;;8.88;99.51
57990;BME280;58373;51.824;5.564;2022-10-20T07:03:36;101244.28;;;8.89;99.98
57990;BME280;58373;51.824;5.564;2022-10-20T07:06:03;101225.44;;;8.87;99.92
57990;BME280;58373;51.824;5.564;2022-10-20T07:08:30;101225.03;;;8.93;99.54
57990;BME280;58373;51.824;5.564;2022-10-20T07:13:26;101234.94;;;8.99;99.90
57990;BME280;58373;51.824;5.564;2022-10-20T07:15:53;101236.63;;;9.00;99.96
57990;BME280;58373;51.824;5.564;2022-10-20T07:18:19;101223.19;;;8.95;100.00
57990;BME280;58373;51.824;5.564;2022-10-20T07:20:45;101241.56;;;9.03;100.00
57990;BME280;58373;51.824;5.564;2022-10-20T07:23:10;101226.28;;;9.00;100.00
57990;BME280;58373;51.824;5.564;2022-10-20T07:25:35;101210.75;;;9.00;100.00
57990;BME280;58373;51.824;5.564;2022-10-20T07:28:01;101215.69;;;9.03;100.00
57990;BME280;58373;51.824;5.564;2022-10-20T07:30:26;101232.25;;;9.14;99.93
57990;BME280;58373;51.824;5.564;2022-10-20T07:32:51;101229.66;;;9.14;100.00
57990;BME280;58373;51.824;5.564;2022-10-20T07:35:16;101230.59;;;9.13;100.00
57990;BME280;58373;51.824;5.564;2022-10-20T07:37:42;101229.44;;;9.17;100.00
57990;BME280;58373;51.824;5.564;2022-10-20T07:40:07;101227.69;;;9.17;100.00
57990;BME280;58373;51.824;5.564;2022-10-20T07:42:33;101236.56;;;9.26;100.00
57990;BME280;58373;51.824;5.564;2022-10-20T07:44:58;101238.03;;;9.30;100.00
57990;BME280;58373;51.824;5.564;2022-10-20T07:47:24;101249.81;;;9.34;100.00
57990;BME280;58373;51.824;5.564;2022-10-20T07:49:50;101247.97;;;9.36;100.00
57990;BME280;58373;51.824;5.564;2022-10-20T07:52:15;101244.19;;;9.40;100.00
57990;BME280;58373;51.824;5.564;2022-10-20T07:54:41;101239.03;;;9.40;100.00
57990;BME280;58373;51.824;5.564;2022-10-20T07:57:06;101238.00;;;9.43;100.00
57990;BME280;58373;51.824;5.564;2022-10-20T07:59:31;101236.75;;;9.48;100.00
57990;BME280;58373;51.824;5.564;2022-10-20T08:01:57;101223.09;;;9.46;100.00
57990;BME280;58373;51.824;5.564;2022-10-20T08:04:22;101227.59;;;9.55;100.00
57990;BME280;58373;51.824;5.564;2022-10-20T08:06:47;101222.22;;;9.58;100.00
57990;BME280;58373;51.824;5.564;2022-10-20T08:09:13;101233.78;;;9.66;100.00
57990;BME280;58373;51.824;5.564;2022-10-20T08:11:38;101228.16;;;9.72;100.00
57990;BME280;58373;51.824;5.564;2022-10-20T08:14:03;101212.81;;;9.69;99.85
57990;BME280;58373;51.824;5.564;2022-10-20T08:16:29;101219.94;;;9.78;100.00
57990;BME280;58373;51.824;5.564;2022-10-20T08:18:54;101213.63;;;9.82;100.00
57990;BME280;58373;51.824;5.564;2022-10-20T08:21:20;101208.19;;;9.85;99.87
57990;BME280;58373;51.824;5.564;2022-10-20T08:23:49;101210.84;;;9.96;100.00
57990;BME280;58373;51.824;5.564;2022-10-20T08:26:23;101205.56;;;9.98;100.00
57990;BME280;58373;51.824;5.564;2022-10-20T08:28:51;101218.44;;;10.10;100.00
57990;BME280;58373;51.824;5.564;2022-10-20T08:31:16;101206.19;;;10.13;100.00
57990;BME280;58373;51.824;5.564;2022-10-20T08:33:42;101205.53;;;10.22;100.00
57990;BME280;58373;51.824;5.564;2022-10-20T08:36:10;101196.81;;;10.23;100.00
57990;BME280;58373;51.824;5.564;2022-10-20T08:38:36;101195.09;;;10.34;100.00
57990;BME280;58373;51.824;5.564;2022-10-20T08:41:04;101184.47;;;10.37;99.67
57990;BME280;58373;51.824;5.564;2022-10-20T08:43:33;101195.94;;;10.46;100.00
57990;BME280;58373;51.824;5.564;2022-10-20T08:46:00;101177.78;;;10.46;100.00
57990;BME280;58373;51.824;5.564;2022-10-20T08:48:28;101181.44;;;10.55;99.92
57990;BME280;58373;51.824;5.564;2022-10-20T08:50:56;101192.19;;;10.61;99.93
57990;BME280;58373;51.824;5.564;2022-10-20T08:53:23;101185.13;;;10.63;99.27
57990;BME280;58373;51.824;5.564;2022-10-20T08:55:50;101194.56;;;10.76;100.00
57990;BME280;58373;51.824;5.564;2022-10-20T08:58:19;101190.78;;;10.80;99.66
57990;BME280;58373;51.824;5.564;2022-10-20T09:00:46;101192.22;;;10.84;98.96
57990;BME280;58373;51.824;5.564;2022-10-20T09:03:37;101185.47;;;10.93;99.61
57990;BME280;58373;51.824;5.564;2022-10-20T09:06:11;101180.75;;;10.98;99.21
57990;BME280;58373;51.824;5.564;2022-10-20T09:08:38;101175.56;;;10.98;98.96
57990;BME280;58373;51.824;5.564;2022-10-20T09:11:06;101162.34;;;11.01;98.45
57990;BME280;58373;51.824;5.564;2022-10-20T09:13:33;101157.53;;;11.07;98.58
57990;BME280;58373;51.824;5.564;2022-10-20T09:16:30;101163.63;;;11.17;98.45
57990;BME280;58373;51.824;5.564;2022-10-20T09:19:03;101171.31;;;11.19;98.37
57990;BME280;58373;51.824;5.564;2022-10-20T09:21:30;101151.09;;;11.23;98.13
57990;BME280;58373;51.824;5.564;2022-10-20T09:24:02;101171.16;;;11.32;97.99
57990;BME280;58373;51.824;5.564;2022-10-20T09:26:34;101172.31;;;11.39;97.90
57990;BME280;58373;51.824;5.564;2022-10-20T09:29:07;101170.19;;;11.44;97.26
57990;BME280;58373;51.824;5.564;2022-10-20T09:31:37;101174.06;;;11.50;97.64
57990;BME280;58373;51.824;5.564;2022-10-20T09:34:24;101168.25;;;11.57;97.63
57990;BME280;58373;51.824;5.564;2022-10-20T09:37:11;101148.69;;;11.53;97.43
57990;BME280;58373;51.824;5.564;2022-10-20T09:42:18;101164.41;;;11.73;97.21
57990;BME280;58373;51.824;5.564;2022-10-20T09:45:23;101170.75;;;11.80;96.97
57990;BME280;58373;51.824;5.564;2022-10-20T09:48:05;101174.94;;;11.82;97.02
57990;BME280;58373;51.824;5.564;2022-10-20T09:50:34;101167.84;;;11.84;97.02
57990;BME280;58373;51.824;5.564;2022-10-20T09:53:04;101166.50;;;11.90;97.32
57990;BME280;58373;51.824;5.564;2022-10-20T09:55:36;101150.22;;;11.88;96.51
57990;BME280;58373;51.824;5.564;2022-10-20T09:58:06;101157.31;;;11.86;96.35
57990;BME280;58373;51.824;5.564;2022-10-20T10:00:44;101157.75;;;11.91;96.92
57990;BME280;58373;51.824;5.564;2022-10-20T10:03:22;101184.66;;;12.01;97.32
57990;BME280;58373;51.824;5.564;2022-10-20T10:08:15;101171.28;;;12.06;97.11
57990;BME280;58373;51.824;5.564;2022-10-20T10:10:43;101166.63;;;12.09;96.96
57990;BME280;58373;51.824;5.564;2022-10-20T10:13:20;101161.94;;;12.03;96.54
57990;BME280;58373;51.824;5.564;2022-10-20T10:15:46;101153.25;;;12.14;96.05
57990;BME280;58373;51.824;5.564;2022-10-20T10:18:20;101152.19;;;12.16;96.43
57990;BME280;58373;51.824;5.564;2022-10-20T10:20:46;101141.22;;;12.13;95.93
57990;BME280;58373;51.824;5.564;2022-10-20T10:23:17;101145.09;;;12.18;96.59
57990;BME280;58373;51.824;5.564;2022-10-20T10:25:43;101117.13;;;12.11;96.58
57990;BME280;58373;51.824;5.564;2022-10-20T10:28:33;101151.69;;;12.22;96.49
57990;BME280;58373;51.824;5.564;2022-10-20T10:31:23;101149.78;;;12.25;96.38
57990;BME280;58373;51.824;5.564;2022-10-20T10:33:53;101143.16;;;12.20;97.18
57990;BME280;58373;51.824;5.564;2022-10-20T10:36:32;101152.13;;;12.28;96.94
57990;BME280;58373;51.824;5.564;2022-10-20T10:38:59;101139.75;;;12.20;97.38
57990;BME280;58373;51.824;5.564;2022-10-20T10:41:36;101154.28;;;12.22;98.08
57990;BME280;58373;51.824;5.564;2022-10-20T10:44:27;101153.78;;;12.29;98.85
57990;BME280;58373;51.824;5.564;2022-10-20T10:49:53;101134.47;;;12.31;98.38
57990;BME280;58373;51.824;5.564;2022-10-20T10:55:20;101137.22;;;12.30;99.27
57990;BME280;58373;51.824;5.564;2022-10-20T10:58:14;101127.75;;;12.29;99.42
57990;BME280;58373;51.824;5.564;2022-10-20T11:03:51;101130.22;;;12.30;100.00
57990;BME280;58373;51.824;5.564;2022-10-20T11:20:20;101115.72;;;12.28;100.00
57990;BME280;58373;51.824;5.564;2022-10-20T11:23:20;101113.94;;;12.28;100.00
57990;BME280;58373;51.824;5.564;2022-10-20T11:28:43;101098.28;;;12.18;100.00
57990;BME280;58373;51.824;5.564;2022-10-20T11:36:30;101099.41;;;12.26;100.00
57990;BME280;58373;51.824;5.564;2022-10-20T11:38:56;101098.03;;;12.21;100.00
57990;BME280;58373;51.824;5.564;2022-10-20T11:41:38;101101.31;;;12.23;100.00
57990;BME280;58373;51.824;5.564;2022-10-20T11:44:20;101087.72;;;12.20;100.00
57990;BME280;58373;51.824;5.564;2022-10-20T11:47:01;101089.28;;;12.22;100.00
57990;BME280;58373;51.824;5.564;2022-10-20T11:49:29;101090.09;;;12.23;100.00
57990;BME280;58373;51.824;5.564;2022-10-20T11:57:01;101075.31;;;12.23;100.00
57990;BME280;58373;51.824;5.564;2022-10-20T12:10:27;101031.34;;;12.20;100.00
57990;BME280;58373;51.824;5.564;2022-10-20T12:13:14;101032.31;;;12.19;100.00
57990;BME280;58373;51.824;5.564;2022-10-20T12:15:48;101034.91;;;12.19;100.00
57990;BME280;58373;51.824;5.564;2022-10-20T12:18:29;101038.03;;;12.13;100.00
57990;BME280;58373;51.824;5.564;2022-10-20T12:20:57;101049.31;;;12.23;100.00
57990;BME280;58373;51.824;5.564;2022-10-20T12:29:05;101059.63;;;12.35;100.00
57990;BME280;58373;51.824;5.564;2022-10-20T12:34:49;101032.41;;;12.39;100.00
57990;BME280;58373;51.824;5.564;2022-10-20T12:37:16;101052.41;;;12.48;100.00
57990;BME280;58373;51.824;5.564;2022-10-20T12:39:42;101031.88;;;12.45;100.00
57990;BME280;58373;51.824;5.564;2022-10-20T12:42:19;101033.22;;;12.49;100.00
57990;BME280;58373;51.824;5.564;2022-10-20T12:44:45;101028.03;;;12.49;100.00
57990;BME280;58373;51.824;5.564;2022-10-20T12:47:18;101039.56;;;12.56;100.00
57990;BME280;58373;51.824;5.564;2022-10-20T12:49:59;101036.00;;;12.57;100.00
57990;BME280;58373;51.824;5.564;2022-10-20T12:52:37;101025.31;;;12.51;100.00
57990;BME280;58373;51.824;5.564;2022-10-20T12:55:07;101023.69;;;12.59;100.00
57990;BME280;58373;51.824;5.564;2022-10-20T12:57:39;101023.69;;;12.59;100.00
57990;BME280;58373;51.824;5.564;2022-10-20T13:02:55;101011.63;;;12.58;100.00
57990;BME280;58373;51.824;5.564;2022-10-20T13:05:26;101027.97;;;12.70;100.00
57990;BME280;58373;51.824;5.564;2022-10-20T13:15:26;101004.56;;;12.80;100.00
57990;BME280;58373;51.824;5.564;2022-10-20T13:23:12;100999.63;;;12.96;100.00
57990;BME280;58373;51.824;5.564;2022-10-20T13:25:45;101026.09;;;13.11;100.00
57990;BME280;58373;51.824;5.564;2022-10-20T13:36:04;100997.72;;;13.46;100.00
57990;BME280;58373;51.824;5.564;2022-10-20T13:41:09;100988.09;;;13.57;100.00
57990;BME280;58373;51.824;5.564;2022-10-20T13:43:46;100982.63;;;13.60;100.00
57990;BME280;58373;51.824;5.564;2022-10-20T13:49:41;100980.38;;;13.65;100.00
57990;BME280;58373;51.824;5.564;2022-10-20T13:52:13;100958.19;;;13.61;100.00
57990;BME280;58373;51.824;5.564;2022-10-20T13:54:41;100955.16;;;13.65;100.00
57990;BME280;58373;51.824;5.564;2022-10-20T13:57:21;100969.94;;;13.74;100.00
57990;BME280;58373;51.824;5.564;2022-10-20T14:00:14;100966.91;;;13.79;100.00
57990;BME280;58373;51.824;5.564;2022-10-20T14:02:54;100964.84;;;13.82;100.00
57990;BME280;58373;51.824;5.564;2022-10-20T14:05:21;100974.31;;;13.84;100.00
57990;BME280;58373;51.824;5.564;2022-10-20T14:07:47;100966.50;;;13.84;100.00
57990;BME280;58373;51.824;5.564;2022-10-20T14:12:46;100961.38;;;13.92;100.00
57990;BME280;58373;51.824;5.564;2022-10-20T14:15:15;100964.28;;;13.89;100.00
57990;BME280;58373;51.824;5.564;2022-10-20T14:17:54;100959.72;;;13.91;100.00
57990;BME280;58373;51.824;5.564;2022-10-20T14:20:21;100958.34;;;13.96;100.00
57990;BME280;58373;51.824;5.564;2022-10-20T14:22:47;100957.09;;;14.00;100.00
57990;BME280;58373;51.824;5.564;2022-10-20T14:25:14;100954.06;;;14.05;100.00
57990;BME280;58373;51.824;5.564;2022-10-20T14:27:40;100932.34;;;14.04;100.00
57990;BME280;58373;51.824;5.564;2022-10-20T14:30:06;100947.69;;;14.17;100.00
57990;BME280;58373;51.824;5.564;2022-10-20T14:32:37;100940.94;;;14.15;100.00
57990;BME280;58373;51.824;5.564;2022-10-20T14:38:28;100943.09;;;14.29;100.00
57990;BME280;58373;51.824;5.564;2022-10-20T14:40:56;100936.22;;;14.28;100.00
57990;BME280;58373;51.824;5.564;2022-10-20T14:43:35;100937.41;;;14.33;100.00
57990;BME280;58373;51.824;5.564;2022-10-20T14:46:05;100933.97;;;14.33;100.00
57990;BME280;58373;51.824;5.564;2022-10-20T14:48:37;100933.84;;;14.34;100.00
57990;BME280;58373;51.824;5.564;2022-10-20T14:51:28;100939.16;;;14.43;100.00
57990;BME280;58373;51.824;5.564;2022-10-20T14:56:49;100928.69;;;14.43;100.00
57990;BME280;58373;51.824;5.564;2022-10-20T14:59:16;100930.09;;;14.47;100.00
57990;BME280;58373;51.824;5.564;2022-10-20T15:04:33;100931.44;;;14.51;100.00
57990;BME280;58373;51.824;5.564;2022-10-20T15:09:42;100939.13;;;14.52;100.00
57990;BME280;58373;51.824;5.564;2022-10-20T15:14:45;100940.44;;;14.56;100.00
57990;BME280;58373;51.824;5.564;2022-10-20T15:22:53;100927.56;;;14.55;100.00
57990;BME280;58373;51.824;5.564;2022-10-20T15:25:18;100936.06;;;14.57;100.00
57990;BME280;58373;51.824;5.564;2022-10-20T15:27:44;100931.94;;;14.54;100.00